ウルムチ の空港の天気 - METARとTAF

ウルムチ地窩堡国際空港 ( ZWWW / URC ) - 中華人民共和国 新疆ウイグル自治区ウルムチ市
飛行場実況気象(Metar)
観測時間01/21 01:30 CST (01/20 17:30 UTC)
風向・風速不定 1m/s
視程1000m
天気現象弱い雪 もや
全天の8割程度の雲 雲底高度 150m
気温-19℃
湿度84%
気圧1033hPa
METARZWWW 201730Z VRB01MPS 1000 R25/1300D -SN BR BKN005 M19/M21 Q1033 NOSIG
過去の天気等 Google飛行場航空写真 Wunderground天気予報

過去48時間のMETAR

飛行場予報(TAF)
発表時間: 1/20 23:07 CST (1/20 15:07 UTC)
予報対象時間: 21日2時 CST ~ 22日2時 CST
風向・風速不定 2m/s
視程800m
天気現象氷霧
全天の8割程度の雲 雲底高度 180m
21日6時 CST ~ 21日7時 CST に徐々に
視程500m
天気現象弱い雪 氷霧
全天の8割程度の雲 雲底高度 90m
21日13時 CST ~ 21日14時 CST に徐々に
視程1,000m
天気現象もや
全天の8割程度の雲 雲底高度 180m
TAF ZWWW 201507Z 2018/2118 VRB02MPS 0800 FZFG BKN006 TXM12/09Z TNM21/00Z
BECMG 2022/2023 0500 -SN FZFG BKN003
BECMG 2105/2106 1000 BR BKN006